createdAt,value
2022-09-16T00:00:05.000Z,84.00
2022-09-16T00:04:59.000Z,83.05
2022-09-16T00:09:54.000Z,84.06
2022-09-16T00:14:49.000Z,84.33
2022-09-16T00:19:43.000Z,84.69
2022-09-16T00:24:38.000Z,86.52
2022-09-16T00:29:33.000Z,86.67
2022-09-16T00:34:27.000Z,86.72
2022-09-16T00:39:22.000Z,84.32
2022-09-16T00:44:16.000Z,87.38
2022-09-16T00:58:53.000Z,85.55
2022-09-16T01:03:48.000Z,85.14
2022-09-16T01:08:43.000Z,85.69
2022-09-16T01:23:20.000Z,88.63
2022-09-16T01:28:12.000Z,90.57
2022-09-16T01:42:50.000Z,90.33
2022-09-16T01:57:29.000Z,92.27
2022-09-16T02:12:07.000Z,94.14
2022-09-16T02:26:45.000Z,94.97
2022-09-16T02:41:24.000Z,96.83
2022-09-16T02:56:03.000Z,97.80
2022-09-16T03:10:41.000Z,100.00
2022-09-16T03:25:19.000Z,100.00
2022-09-16T03:39:58.000Z,100.00
2022-09-16T03:54:36.000Z,100.00
2022-09-16T04:09:15.000Z,100.00
2022-09-16T04:23:55.000Z,100.00
2022-09-16T04:38:34.000Z,100.00
2022-09-16T04:53:10.000Z,100.00
2022-09-16T05:07:49.000Z,100.00
2022-09-16T05:22:27.000Z,100.00
2022-09-16T05:37:05.000Z,100.00
2022-09-16T05:51:45.000Z,100.00
2022-09-16T06:06:24.000Z,100.00
2022-09-16T06:21:04.000Z,100.00
2022-09-16T06:35:44.000Z,97.33
2022-09-16T06:50:24.000Z,89.36
2022-09-16T07:05:05.000Z,86.17
2022-09-16T07:19:44.000Z,85.66
2022-09-16T07:34:24.000Z,84.53
2022-09-16T07:49:03.000Z,75.23
2022-09-16T08:03:44.000Z,75.84
2022-09-16T08:08:39.000Z,77.49
2022-09-16T08:13:34.000Z,74.86
2022-09-16T08:18:29.000Z,74.72
2022-09-16T08:33:05.000Z,73.15
2022-09-16T08:38:00.000Z,73.51
2022-09-16T08:42:55.000Z,70.65
2022-09-16T08:47:50.000Z,72.01
2022-09-16T08:52:45.000Z,73.36
2022-09-16T08:57:40.000Z,70.72
2022-09-16T09:02:34.000Z,74.14
2022-09-16T09:07:29.000Z,67.25
2022-09-16T09:12:23.000Z,56.45
2022-09-16T09:17:19.000Z,48.78
2022-09-16T09:22:16.000Z,44.70
2022-09-16T09:27:12.000Z,52.59
2022-09-16T09:32:06.000Z,60.71
2022-09-16T09:37:01.000Z,57.13
2022-09-16T09:41:55.000Z,63.52
2022-09-16T09:46:49.000Z,63.28
2022-09-16T09:51:44.000Z,62.91
2022-09-16T09:56:37.000Z,64.18
2022-09-16T10:01:32.000Z,63.51
2022-09-16T10:06:25.000Z,62.67
2022-09-16T10:11:20.000Z,58.00
2022-09-16T10:16:15.000Z,61.70
2022-09-16T10:21:10.000Z,64.09
2022-09-16T10:26:04.000Z,64.04
2022-09-16T10:30:59.000Z,51.01
2022-09-16T10:35:55.000Z,52.30
2022-09-16T10:40:50.000Z,47.15
2022-09-16T10:45:49.000Z,49.94
2022-09-16T10:50:40.000Z,47.85
2022-09-16T10:55:35.000Z,46.07
2022-09-16T11:00:33.000Z,45.29
2022-09-16T11:05:25.000Z,44.37
2022-09-16T11:10:20.000Z,43.28
2022-09-16T11:15:15.000Z,38.02
2022-09-16T11:20:11.000Z,41.97
2022-09-16T11:25:05.000Z,45.02
2022-09-16T11:29:59.000Z,46.48
2022-09-16T11:34:53.000Z,39.95
2022-09-16T11:39:49.000Z,36.55
2022-09-16T11:44:45.000Z,37.23
2022-09-16T11:49:40.000Z,40.04
2022-09-16T11:54:34.000Z,44.37
2022-09-16T11:59:27.000Z,39.77
2022-09-16T12:04:23.000Z,32.64
2022-09-16T12:09:20.000Z,34.24
2022-09-16T12:14:16.000Z,30.41
2022-09-16T12:19:12.000Z,31.84
2022-09-16T12:24:06.000Z,31.31
2022-09-16T12:29:02.000Z,31.31
2022-09-16T12:33:56.000Z,36.64
2022-09-16T12:38:49.000Z,33.59
2022-09-16T12:43:43.000Z,32.32
2022-09-16T12:48:39.000Z,29.02
2022-09-16T12:53:35.000Z,30.51
2022-09-16T12:58:30.000Z,27.83
2022-09-16T13:03:25.000Z,28.24
2022-09-16T13:08:20.000Z,31.17
2022-09-16T13:13:14.000Z,31.89
2022-09-16T13:18:08.000Z,34.85
2022-09-16T13:23:02.000Z,30.76
2022-09-16T13:27:55.000Z,29.39
2022-09-16T13:32:50.000Z,26.32
2022-09-16T13:37:45.000Z,31.91
2022-09-16T13:42:42.000Z,40.76
2022-09-16T13:47:31.000Z,49.21
2022-09-16T13:52:24.000Z,54.27
2022-09-16T13:57:18.000Z,64.29
2022-09-16T14:02:11.000Z,72.52
2022-09-16T14:07:04.000Z,76.38
2022-09-16T14:11:58.000Z,83.51
2022-09-16T14:16:53.000Z,87.79
2022-09-16T14:21:47.000Z,87.05
2022-09-16T14:26:41.000Z,89.89
2022-09-16T14:31:42.000Z,90.41
2022-09-16T14:36:29.000Z,87.68
2022-09-16T14:41:21.000Z,83.08
2022-09-16T14:46:16.000Z,78.64
2022-09-16T14:51:11.000Z,81.86
2022-09-16T14:56:06.000Z,71.42
2022-09-16T15:01:02.000Z,53.13
2022-09-16T15:05:58.000Z,46.96
2022-09-16T15:10:54.000Z,44.54
2022-09-16T15:15:50.000Z,53.61
2022-09-16T15:20:44.000Z,56.47
2022-09-16T15:25:38.000Z,45.41
2022-09-16T15:30:33.000Z,39.91
2022-09-16T15:35:28.000Z,42.45
2022-09-16T15:40:23.000Z,46.71
2022-09-16T15:45:17.000Z,57.39
2022-09-16T15:50:11.000Z,60.50
2022-09-16T15:55:05.000Z,62.50
2022-09-16T15:59:59.000Z,65.47
2022-09-16T16:04:54.000Z,61.25
2022-09-16T16:09:48.000Z,61.08
2022-09-16T16:14:43.000Z,62.38
2022-09-16T16:19:37.000Z,69.08
2022-09-16T16:24:32.000Z,63.14
2022-09-16T16:29:26.000Z,44.35
2022-09-16T16:34:22.000Z,42.97
2022-09-16T16:39:17.000Z,55.23
2022-09-16T16:44:12.000Z,61.15
2022-09-16T16:49:05.000Z,59.40
2022-09-16T16:53:59.000Z,63.49
2022-09-16T16:58:53.000Z,65.57
2022-09-16T17:03:47.000Z,71.97
2022-09-16T17:08:42.000Z,73.53
2022-09-16T17:13:36.000Z,76.09
2022-09-16T17:18:30.000Z,79.35
2022-09-16T17:23:24.000Z,83.39
2022-09-16T17:28:18.000Z,82.11
2022-09-16T17:33:12.000Z,80.81
2022-09-16T17:38:07.000Z,79.56
2022-09-16T17:43:01.000Z,80.96
2022-09-16T17:47:55.000Z,82.12
2022-09-16T17:52:50.000Z,83.23
2022-09-16T17:57:44.000Z,84.47
2022-09-16T18:02:38.000Z,83.42
2022-09-16T18:07:33.000Z,83.25
2022-09-16T18:12:28.000Z,81.86
2022-09-16T18:17:22.000Z,83.08
2022-09-16T18:22:16.000Z,83.37
2022-09-16T18:27:10.000Z,82.93
2022-09-16T18:32:05.000Z,82.90
2022-09-16T18:36:59.000Z,83.55
2022-09-16T18:41:54.000Z,82.48
2022-09-16T18:46:49.000Z,84.96
2022-09-16T18:51:39.000Z,83.79
2022-09-16T18:56:33.000Z,84.30
2022-09-16T19:01:28.000Z,83.67
2022-09-16T19:06:22.000Z,84.48
2022-09-16T19:11:17.000Z,87.71
2022-09-16T19:16:11.000Z,87.04
2022-09-16T19:21:06.000Z,85.56
2022-09-16T19:26:01.000Z,88.40
2022-09-16T19:30:55.000Z,87.01
2022-09-16T19:35:50.000Z,85.66
2022-09-16T19:40:44.000Z,87.78
2022-09-16T19:45:39.000Z,87.31
2022-09-16T19:50:34.000Z,87.44
2022-09-16T19:55:28.000Z,91.24
2022-09-16T20:00:23.000Z,89.61
2022-09-16T20:05:17.000Z,92.15
2022-09-16T20:10:11.000Z,92.28
2022-09-16T20:15:08.000Z,91.65
2022-09-16T20:20:00.000Z,92.94
2022-09-16T20:24:54.000Z,93.31
2022-09-16T20:29:49.000Z,93.65
2022-09-16T20:34:44.000Z,94.53
2022-09-16T20:39:39.000Z,96.95
2022-09-16T20:44:33.000Z,97.54
2022-09-16T20:49:27.000Z,93.99
2022-09-16T20:54:21.000Z,95.62
2022-09-16T20:59:15.000Z,99.18
2022-09-16T21:04:10.000Z,99.05
2022-09-16T21:09:05.000Z,99.30
2022-09-16T21:14:00.000Z,100.00
2022-09-16T21:18:55.000Z,99.18
2022-09-16T21:23:49.000Z,98.07
2022-09-16T21:28:44.000Z,100.00
2022-09-16T21:33:38.000Z,100.00
2022-09-16T21:38:33.000Z,100.00
2022-09-16T21:43:28.000Z,100.00
2022-09-16T21:48:22.000Z,100.00
2022-09-16T21:53:17.000Z,100.00
2022-09-16T21:58:11.000Z,100.00
2022-09-16T22:03:05.000Z,100.00
2022-09-16T22:08:00.000Z,100.00
2022-09-16T22:12:54.000Z,100.00
2022-09-16T22:17:48.000Z,100.00
2022-09-16T22:22:42.000Z,100.00
2022-09-16T22:27:38.000Z,100.00
2022-09-16T22:32:31.000Z,99.28
2022-09-16T22:37:26.000Z,100.00
2022-09-16T22:42:20.000Z,100.00
2022-09-16T22:47:13.000Z,100.00
2022-09-16T22:52:07.000Z,100.00
2022-09-16T22:57:02.000Z,100.00
2022-09-16T23:01:57.000Z,100.00
2022-09-16T23:06:53.000Z,100.00
2022-09-16T23:11:44.000Z,100.00
2022-09-16T23:16:39.000Z,100.00
2022-09-16T23:21:33.000Z,100.00
2022-09-16T23:26:28.000Z,100.00
2022-09-16T23:31:23.000Z,100.00
2022-09-16T23:36:17.000Z,100.00
2022-09-16T23:41:12.000Z,100.00
2022-09-16T23:46:07.000Z,100.00
2022-09-16T23:51:02.000Z,100.00
2022-09-16T23:55:56.000Z,100.00
